Time;durP1;ratioP1;P1;durP2;ratioP2;P2;SDS_P1;SDS_P2;PMS_P1;PMS_P2;Temp;Humidity;BMP_temperature;BMP_pressure;BME280_temperature;BME280_humidity;BME280_pressure;Samples;Min_cycle;Max_cycle;Signal;HPM_P1;HPM_P2
2022/09/05 00:00:18;;;;;;;2.05;1.85;;;;;;;31.53;24.75;99009.34;5081047;28;20047;-77
2022/09/05 00:02:44;;;;;;;1.98;1.77;;;;;;;31.71;24.64;99009.50;5077001;28;20035;-77
2022/09/05 00:05:23;;;;;;;2.20;1.80;;;;;;;31.76;24.31;99008.91;5092499;28;20036;-77
2022/09/05 00:08:01;;;;;;;1.95;1.75;;;;;;;31.98;23.66;99003.19;5091988;28;20077;-77
2022/09/05 00:10:57;;;;;;;1.80;1.45;;;;;;;32.13;23.91;99006.25;5088717;28;20029;-77
2022/09/05 00:13:47;;;;;;;2.17;1.80;;;;;;;31.73;24.14;99006.97;5091156;28;20040;-77
2022/09/05 00:16:31;;;;;;;2.03;1.58;;;;;;;31.35;24.72;99009.19;5091876;28;20055;-76
2022/09/05 00:19:09;;;;;;;2.55;2.33;;;;;;;31.03;25.50;99001.06;5087597;28;20401;-77
2022/09/05 00:21:49;;;;;;;2.00;1.90;;;;;;;30.94;25.45;99001.00;5091279;28;20039;-77
2022/09/05 00:24:30;;;;;;;2.60;1.70;;;;;;;31.28;24.91;99001.75;5089128;28;20118;-77
2022/09/05 00:27:08;;;;;;;1.60;1.50;;;;;;;31.47;24.38;98994.19;5090173;28;20483;-77
2022/09/05 00:29:48;;;;;;;1.65;1.48;;;;;;;31.48;24.80;99003.50;5094250;28;20482;-77
2022/09/05 00:32:32;;;;;;;2.08;1.55;;;;;;;31.47;24.86;98997.03;5089059;28;20103;-77
2022/09/05 00:35:12;;;;;;;1.45;1.27;;;;;;;30.83;25.38;98997.72;5088520;28;20043;-77
2022/09/05 00:37:46;;;;;;;2.20;1.33;;;;;;;30.69;26.06;98987.66;5091667;28;20114;-77
2022/09/05 00:40:29;;;;;;;1.60;1.50;;;;;;;31.03;25.08;98990.53;5089831;28;20479;-77
2022/09/05 00:43:00;;;;;;;1.50;1.40;;;;;;;31.52;24.39;98992.78;5086709;28;20169;-77
2022/09/05 00:45:34;;;;;;;1.50;1.40;;;;;;;31.78;24.02;98992.19;5091091;28;20020;-76
2022/09/05 00:48:22;;;;;;;1.95;1.35;;;;;;;31.99;23.64;98985.69;5091477;28;20029;-76
2022/09/05 00:51:13;;;;;;;2.47;1.42;;;;;;;32.05;23.93;98978.13;5093348;28;20483;-77
2022/09/05 00:53:45;;;;;;;3.03;1.40;;;;;;;31.98;23.50;98984.09;5088200;28;20124;-77
2022/09/05 00:56:41;;;;;;;1.70;1.40;;;;;;;31.53;23.86;98985.88;5092615;28;20035;-76
2022/09/05 00:59:22;;;;;;;2.13;1.58;;;;;;;31.15;24.64;98988.88;5091743;28;20028;-77
2022/09/05 01:02:17;;;;;;;1.70;1.60;;;;;;;30.92;24.98;98990.13;5088826;28;20085;-77
2022/09/05 01:05:06;;;;;;;1.95;1.63;;;;;;;31.10;24.42;98986.63;5090709;28;20063;-77
2022/09/05 01:08:09;;;;;;;1.30;1.20;;;;;;;31.12;24.53;98989.78;5082814;28;20024;-77
2022/09/05 01:11:09;;;;;;;1.52;1.30;;;;;;;31.13;24.58;98983.69;5089206;28;20032;-77
2022/09/05 01:13:56;;;;;;;1.50;1.35;;;;;;;30.87;24.46;98984.19;5092011;28;20074;-77
2022/09/05 01:16:55;;;;;;;1.45;1.10;;;;;;;30.55;25.00;98993.81;5094385;28;20809;-77
2022/09/05 01:19:47;;;;;;;2.58;1.58;;;;;;;30.77;24.96;98986.16;5087637;28;20483;-77
2022/09/05 01:22:49;;;;;;;1.67;1.33;;;;;;;31.00;24.28;98987.78;5088600;28;20058;-77
2022/09/05 01:25:34;;;;;;;1.25;1.15;;;;;;;31.29;23.86;98985.53;5098302;28;20040;-77
2022/09/05 01:28:43;;;;;;;1.45;1.35;;;;;;;31.43;23.58;98982.19;5082322;28;20107;-77
2022/09/05 01:31:40;;;;;;;1.58;1.40;;;;;;;31.58;23.09;98993.78;5090890;28;20028;-77
2022/09/05 01:34:29;;;;;;;1.52;1.42;;;;;;;31.68;22.91;98992.56;5085198;28;20505;-77
2022/09/05 01:37:21;;;;;;;1.70;1.35;;;;;;;31.48;23.29;98990.09;5088892;28;20139;-77
2022/09/05 01:40:11;;;;;;;2.10;1.30;;;;;;;30.96;24.03;98993.59;5090118;28;20032;-77
2022/09/05 01:42:43;;;;;;;1.40;1.30;;;;;;;30.62;24.50;98993.59;5090625;28;20038;-77
2022/09/05 01:45:26;;;;;;;8.95;1.38;;;;;;;30.48;24.76;98996.91;5090058;28;20032;-77
2022/09/05 01:48:00;;;;;;;1.48;1.38;;;;;;;30.89;24.17;98998.72;5090879;28;20063;-77
2022/09/05 01:50:55;;;;;;;1.00;0.93;;;;;;;30.99;23.79;98997.56;5092963;28;20040;-77
2022/09/05 01:53:41;;;;;;;2.50;1.20;;;;;;;31.11;23.48;98991.84;5086534;28;20040;-77
2022/09/05 01:56:24;;;;;;;1.92;1.00;;;;;;;31.15;23.54;98998.19;5091175;28;20035;-77
2022/09/05 01:59:26;;;;;;;1.25;1.05;;;;;;;30.72;23.95;99000.91;5085796;28;20039;-77
2022/09/05 02:02:38;;;;;;;1.45;1.27;;;;;;;30.89;23.55;98999.53;5090362;28;20718;-77
2022/09/05 02:05:52;;;;;;;1.90;1.70;;;;;;;30.39;24.20;99003.25;5080563;28;20040;-77
2022/09/05 02:08:38;;;;;;;1.10;1.00;;;;;;;29.96;25.06;98997.34;5080263;28;20113;-77
2022/09/05 02:11:15;;;;;;;2.03;1.33;;;;;;;30.11;24.77;98998.47;5084046;28;20031;-77
2022/09/05 02:13:58;;;;;;;1.38;1.27;;;;;;;29.52;25.59;98998.28;5093505;28;20031;-77
2022/09/05 02:16:30;;;;;;;1.33;1.00;;;;;;;29.78;25.37;98994.28;5096979;28;20115;-77
2022/09/05 02:18:56;;;;;;;1.17;1.08;;;;;;;30.32;24.15;99002.63;5092740;28;20391;-77
2022/09/05 02:21:34;;;;;;;1.10;1.00;;;;;;;30.70;23.47;98997.75;5095579;28;20039;-77
2022/09/05 02:24:22;;;;;;;1.98;1.30;;;;;;;30.53;23.81;99001.97;5087235;28;20039;-77
2022/09/05 02:26:51;;;;;;;1.52;1.20;;;;;;;30.72;23.62;99001.72;5097487;28;20419;-77
2022/09/05 02:29:20;;;;;;;1.35;1.05;;;;;;;31.02;23.26;98997.44;5090374;28;20028;-77
2022/09/05 02:31:49;;;;;;;1.05;1.00;;;;;;;31.27;23.06;99005.06;5092163;28;20040;-76
2022/09/05 02:34:30;;;;;;;1.33;1.20;;;;;;;31.16;22.81;98999.75;5093415;28;20032;-77
2022/09/05 02:37:17;;;;;;;1.38;1.27;;;;;;;30.42;23.55;99001.53;5095020;28;20036;-77
2022/09/05 02:40:09;;;;;;;1.38;1.25;;;;;;;30.38;24.25;99001.66;5081130;28;20499;-77
2022/09/05 02:42:46;;;;;;;1.30;1.20;;;;;;;30.61;23.83;98995.63;5094040;28;20551;-77
2022/09/05 02:45:34;;;;;;;1.20;1.10;;;;;;;30.13;24.17;98995.97;5085978;28;20385;-77
2022/09/05 02:48:12;;;;;;;1.27;1.10;;;;;;;30.07;24.45;98992.13;5091789;28;20028;-77
2022/09/05 02:50:55;;;;;;;1.27;1.17;;;;;;;30.42;23.88;98998.69;5090466;28;20440;-77
2022/09/05 02:53:22;;;;;;;1.08;1.00;;;;;;;30.53;23.85;99001.97;5096626;28;20028;-77
2022/09/05 02:56:12;;;;;;;1.23;1.15;;;;;;;30.61;23.44;98992.78;5092139;28;20034;-77
2022/09/05 02:58:53;;;;;;;1.13;1.02;;;;;;;30.72;23.65;98989.56;5093443;28;20394;-77
2022/09/05 03:01:30;;;;;;;1.63;1.13;;;;;;;30.42;24.40;98996.66;5089879;28;20063;-77
2022/09/05 03:04:10;;;;;;;1.50;1.27;;;;;;;30.36;24.25;98990.00;5092084;28;20407;-77
2022/09/05 03:06:48;;;;;;;1.88;1.23;;;;;;;30.09;24.43;98987.59;5087483;28;20403;-77
2022/09/05 03:09:29;;;;;;;2.83;1.08;;;;;;;30.42;24.09;98991.00;5090517;28;20032;-77
2022/09/05 03:12:40;;;;;;;4.38;1.20;;;;;;;30.34;23.95;98989.63;5088342;28;20042;-76
2022/09/05 03:15:41;;;;;;;1.20;1.10;;;;;;;30.45;24.06;98997.81;5073721;28;20533;-77
2022/09/05 03:18:49;;;;;;;1.30;1.20;;;;;;;30.26;23.95;98995.97;5091547;28;20028;-76
2022/09/05 03:21:50;;;;;;;1.08;1.00;;;;;;;30.09;24.23;98998.94;5092598;28;20047;-76
2022/09/05 03:24:51;;;;;;;1.67;1.20;;;;;;;30.12;24.23;99005.72;5086839;28;20549;-77
2022/09/05 03:27:47;;;;;;;;;;;;;;;30.06;24.64;99008.31;5095271;28;20047;-77
2022/09/05 03:30:23;;;;;;;1.35;1.00;;;;;;;30.24;23.91;99002.09;5080816;28;20290;-76
2022/09/05 03:32:55;;;;;;;1.83;1.10;;;;;;;30.13;23.81;98998.81;5090637;28;20457;-77
2022/09/05 03:35:36;;;;;;;3.92;0.98;;;;;;;29.99;24.19;99005.72;5091494;28;20528;-77
2022/09/05 03:38:29;;;;;;;1.35;1.25;;;;;;;29.74;24.16;99002.03;5084913;28;20024;-77
2022/09/05 03:41:33;;;;;;;1.13;1.05;;;;;;;29.29;24.98;99007.84;5092075;28;20042;-76
2022/09/05 03:44:05;;;;;;;1.42;1.33;;;;;;;29.09;25.36;99010.78;5069953;28;20052;-77
2022/09/05 03:46:43;;;;;;;1.77;1.23;;;;;;;28.90;25.65;99010.91;5093040;28;20116;-77
2022/09/05 03:49:34;;;;;;;2.15;1.40;;;;;;;29.04;25.34;99019.81;5082636;28;20036;-77
2022/09/05 03:52:21;;;;;;;1.73;1.27;;;;;;;29.34;25.17;99018.59;5090563;28;20092;-76
2022/09/05 03:55:10;;;;;;;1.65;1.30;;;;;;;29.79;24.22;99019.31;5086910;28;20411;-76
2022/09/05 03:58:21;;;;;;;1.42;1.30;;;;;;;30.22;23.68;99020.81;5090354;28;20511;-76
2022/09/05 04:01:02;;;;;;;1.40;1.30;;;;;;;30.25;23.75;99017.84;5081072;28;20058;-77
2022/09/05 04:03:44;;;;;;;1.20;1.10;;;;;;;30.58;23.33;99019.19;5092841;28;20036;-76
2022/09/05 04:06:18;;;;;;;1.33;1.23;;;;;;;30.61;23.22;99021.13;5087619;28;20072;-76
2022/09/05 04:09:19;;;;;;;1.30;1.20;;;;;;;30.68;23.14;99015.22;5087857;28;20027;-77
2022/09/05 04:11:53;;;;;;;1.10;1.00;;;;;;;30.67;23.46;99027.78;5083900;28;20036;-77
2022/09/05 04:14:55;;;;;;;2.22;1.30;;;;;;;30.65;22.90;99027.47;5095452;28;20081;-77
2022/09/05 04:17:34;;;;;;;1.15;1.05;;;;;;;30.65;23.31;99033.13;5092428;28;20046;-77
2022/09/05 04:20:29;;;;;;;1.13;1.13;;;;;;;30.54;22.97;99041.22;5097664;28;20040;-77
2022/09/05 04:23:09;;;;;;;1.50;1.30;;;;;;;30.66;23.07;99039.59;5088791;28;20505;-77
2022/09/05 04:26:09;;;;;;;1.30;1.00;;;;;;;30.42;23.47;99044.84;5089658;28;20038;-77
2022/09/05 04:29:13;;;;;;;1.15;1.10;;;;;;;30.58;23.23;99044.72;5084624;28;20028;-77
2022/09/05 04:32:14;;;;;;;2.95;1.42;;;;;;;30.83;23.12;99045.94;5084199;28;20036;-77
2022/09/05 04:34:54;;;;;;;1.55;1.45;;;;;;;30.49;23.36;99050.28;5061318;28;20113;-78
2022/09/05 04:37:32;;;;;;;1.23;1.13;;;;;;;30.25;23.69;99053.88;5090750;28;20044;-76
2022/09/05 04:40:37;;;;;;;1.48;1.10;;;;;;;30.80;23.11;99058.97;5081550;28;20949;-77
2022/09/05 04:43:12;;;;;;;1.20;1.10;;;;;;;31.43;22.30;99070.19;5091697;28;20040;-78
2022/09/05 04:45:50;;;;;;;1.38;1.05;;;;;;;31.63;22.47;99062.13;5076509;28;20024;-78
2022/09/05 04:48:23;;;;;;;1.70;1.45;;;;;;;32.02;22.04;99067.13;5092430;28;20028;-78
2022/09/05 04:50:57;;;;;;;1.45;1.33;;;;;;;31.78;22.14;99076.59;5092666;28;20058;-77
2022/09/05 04:53:47;;;;;;;1.20;1.10;;;;;;;31.28;23.09;99078.38;5088111;28;20040;-76
2022/09/05 04:56:26;;;;;;;0.95;0.95;;;;;;;31.57;22.67;99075.34;5087336;28;20035;-77
2022/09/05 04:59:07;;;;;;;1.20;1.10;;;;;;;31.18;22.81;99085.22;5087998;28;20033;-77
2022/09/05 05:01:41;;;;;;;1.42;1.33;;;;;;;30.80;23.44;99092.22;5073656;28;20161;-77
2022/09/05 05:04:15;;;;;;;1.10;1.00;;;;;;;30.39;23.97;99085.41;5072832;28;20029;-77
2022/09/05 05:06:57;;;;;;;2.22;1.10;;;;;;;30.89;23.62;99098.81;5075415;28;20036;-77
2022/09/05 05:09:50;;;;;;;2.38;1.40;;;;;;;30.76;24.17;99106.50;5089013;28;20030;-77
2022/09/05 05:12:56;;;;;;;3.67;1.33;;;;;;;31.06;24.23;99103.09;5078945;28;20506;-77
2022/09/05 05:15:25;;;;;;;2.13;1.50;;;;;;;31.65;23.73;99107.88;5091306;28;20044;-77
2022/09/05 05:18:04;;;;;;;3.75;1.40;;;;;;;32.25;23.40;99108.47;5090848;28;20479;-78
2022/09/05 05:20:38;;;;;;;1.35;1.25;;;;;;;31.99;23.51;99116.38;5093415;28;20115;-77
2022/09/05 05:23:15;;;;;;;1.20;1.02;;;;;;;31.82;24.14;99117.81;5092573;28;20066;-77
2022/09/05 05:25:52;;;;;;;1.40;1.30;;;;;;;31.91;24.39;99114.22;5092857;28;20067;-77
2022/09/05 05:28:38;;;;;;;1.67;1.42;;;;;;;32.40;23.98;99100.16;5091482;28;20039;-77
2022/09/05 05:31:11;;;;;;;4.20;2.00;;;;;;;31.91;25.03;99122.75;5093160;28;20115;-77
2022/09/05 05:33:39;;;;;;;2.10;1.90;;;;;;;31.54;25.74;99113.16;5093079;28;20024;-77
2022/09/05 05:36:15;;;;;;;2.20;1.88;;;;;;;31.18;26.18;99115.66;5093010;28;20044;-77
2022/09/05 05:39:24;;;;;;;2.25;1.95;;;;;;;31.01;26.54;99108.53;5092730;28;20032;-77
2022/09/05 05:41:54;;;;;;;2.45;2.15;;;;;;;30.75;26.55;99111.38;5033473;28;20053;-77
2022/09/05 05:44:28;;;;;;;2.83;2.30;;;;;;;30.56;26.73;99106.75;5087832;28;20050;-77
2022/09/05 05:47:35;;;;;;;3.05;2.03;;;;;;;30.54;27.00;99112.06;5091484;28;20159;-77
2022/09/05 05:50:20;;;;;;;3.38;2.58;;;;;;;31.65;25.90;99119.25;5094748;28;20044;-77
2022/09/05 05:53:14;;;;;;;2.75;2.25;;;;;;;31.60;25.53;99121.91;5088501;28;20032;-77
2022/09/05 05:56:20;;;;;;;3.05;2.60;;;;;;;31.46;25.49;99120.34;5097194;28;20056;-77
2022/09/05 05:59:07;;;;;;;4.60;2.45;;;;;;;31.46;25.16;99120.34;5096991;28;20032;-77
2022/09/05 06:02:03;;;;;;;2.50;2.30;;;;;;;31.13;25.99;99117.03;5095340;28;20036;-77
2022/09/05 06:04:44;;;;;;;3.97;2.30;;;;;;;31.00;26.14;99121.91;5093852;28;20036;-77
2022/09/05 06:07:37;;;;;;;2.90;2.58;;;;;;;31.24;26.30;99128.78;5096539;28;20036;-77
2022/09/05 06:10:19;;;;;;;3.10;2.40;;;;;;;31.68;25.82;99124.00;5077803;28;20041;-77
2022/09/05 06:13:31;;;;;;;3.97;2.67;;;;;;;31.67;25.77;99128.09;5081763;28;20047;-77
2022/09/05 06:16:24;;;;;;;2.78;2.58;;;;;;;31.53;26.15;99122.91;5096048;28;20035;-77
2022/09/05 06:19:06;;;;;;;3.22;2.38;;;;;;;32.37;24.74;99129.53;5096298;28;20086;-78
2022/09/05 06:22:04;;;;;;;2.47;2.28;;;;;;;32.22;24.71;99122.81;5094731;28;20059;-77
2022/09/05 06:24:58;;;;;;;2.35;2.15;;;;;;;32.58;24.32;99129.50;5095897;28;20034;-77
2022/09/05 06:27:33;;;;;;;2.85;2.40;;;;;;;32.71;24.31;99135.09;5096365;28;20032;-77
2022/09/05 06:30:07;;;;;;;3.25;2.70;;;;;;;31.94;24.91;99131.16;5096017;28;20436;-78
2022/09/05 06:33:08;;;;;;;4.57;2.72;;;;;;;31.87;25.43;99127.78;5096359;28;20032;-77
2022/09/05 06:35:52;;;;;;;3.33;2.60;;;;;;;31.94;26.25;99134.00;5096350;28;20384;-77
2022/09/05 06:38:48;;;;;;;5.60;2.53;;;;;;;31.72;26.21;99138.84;5095153;28;20036;-77
2022/09/05 06:42:04;;;;;;;4.38;2.40;;;;;;;32.48;25.25;99141.28;5095790;28;20020;-78
2022/09/05 06:44:48;;;;;;;4.57;3.80;;;;;;;31.82;27.02;99136.88;5053419;28;20060;-77
2022/09/05 06:47:18;;;;;;;4.05;2.60;;;;;;;32.17;25.78;99134.78;5052870;28;20424;-77
2022/09/05 06:49:47;;;;;;;3.00;2.70;;;;;;;32.16;26.53;99136.81;5079699;28;20033;-77
2022/09/05 06:52:28;;;;;;;4.03;2.92;;;;;;;32.39;25.98;99142.03;5074165;28;20033;-77
2022/09/05 06:55:08;;;;;;;3.50;2.42;;;;;;;32.95;24.93;99133.28;5078803;28;20495;-78
2022/09/05 06:58:02;;;;;;;2.80;2.30;;;;;;;32.92;25.17;99139.09;5094473;28;20031;-77
2022/09/05 07:00:43;;;;;;;1.77;1.67;;;;;;;32.68;25.82;99155.91;5095648;28;20028;-77
2022/09/05 07:03:22;;;;;;;;;;;;;;;32.32;25.84;99150.03;5095697;28;20048;-77
2022/09/05 07:06:06;;;;;;;2.85;2.58;;;;;;;31.93;27.79;99154.31;5095936;28;19922;-77
2022/09/05 07:08:52;;;;;;;2.40;2.20;;;;;;;32.78;25.87;99149.03;5089396;28;20021;-77
2022/09/05 07:11:21;;;;;;;4.10;2.35;;;;;;;32.60;26.52;99161.09;5074888;28;20052;-78
2022/09/05 07:13:55;;;;;;;3.65;3.28;;;;;;;30.29;28.93;99157.38;5092714;28;20129;-77
2022/09/05 07:16:45;;;;;;;2.90;2.20;;;;;;;31.70;27.92;99158.41;5095212;28;20111;-77
2022/09/05 07:19:27;;;;;;;2.60;2.40;;;;;;;31.01;29.14;99153.94;5095114;28;20028;-77
2022/09/05 07:21:59;;;;;;;2.90;2.20;;;;;;;30.29;29.20;99159.41;5092161;28;20437;-77
2022/09/05 07:24:27;;;;;;;3.15;2.80;;;;;;;29.95;30.71;99157.97;5074831;28;20090;-77
2022/09/05 07:26:57;;;;;;;2.65;2.45;;;;;;;30.90;28.46;99150.66;5074990;28;20495;-77
2022/09/05 07:29:33;;;;;;;2.67;2.08;;;;;;;31.36;28.63;99147.03;5082097;28;20024;-77
2022/09/05 07:32:01;;;;;;;3.17;2.50;;;;;;;31.62;28.03;99154.25;5095167;28;20483;-77
2022/09/05 07:34:30;;;;;;;4.43;2.75;;;;;;;29.60;29.73;99147.63;5094985;28;20033;-77
2022/09/05 07:37:04;;;;;;;2.38;2.17;;;;;;;30.83;28.81;99148.78;5094270;28;20028;-77
2022/09/05 07:39:38;;;;;;;2.75;2.35;;;;;;;31.98;27.70;99151.72;5094173;28;20458;-77
2022/09/05 07:42:10;;;;;;;2.20;2.00;;;;;;;32.70;26.98;99150.56;5093127;28;20040;-78
2022/09/05 07:44:42;;;;;;;2.50;2.22;;;;;;;33.24;25.99;99142.22;5094491;28;20028;-77
2022/09/05 07:47:21;;;;;;;3.33;2.25;;;;;;;32.47;26.33;99154.69;5094462;28;20454;-78
2022/09/05 07:49:49;;;;;;;2.03;1.75;;;;;;;31.04;27.96;99147.34;5079285;28;20618;-77
2022/09/05 07:52:22;;;;;;;2.50;2.20;;;;;;;31.47;28.46;99155.19;5074324;28;20078;-78
2022/09/05 07:54:52;;;;;;;1.80;1.70;;;;;;;33.16;25.40;99143.81;5085679;28;20410;-77
2022/09/05 07:57:26;;;;;;;2.07;1.87;;;;;;;32.95;25.50;99152.41;5094579;28;20024;-77
2022/09/05 08:00:10;;;;;;;2.97;2.30;;;;;;;31.31;28.32;99156.13;5093310;28;20032;-78
2022/09/05 08:02:43;;;;;;;4.13;2.40;;;;;;;31.53;27.36;99148.47;5094643;28;20034;-77
2022/09/05 08:05:12;;;;;;;4.10;2.65;;;;;;;31.68;28.52;99158.09;5074007;28;20112;-78
2022/09/05 08:07:42;;;;;;;2.10;1.88;;;;;;;31.36;27.59;99152.72;5073929;28;20043;-78
2022/09/05 08:10:13;;;;;;;2.33;1.70;;;;;;;32.29;25.99;99159.50;5090265;28;20036;-78
2022/09/05 08:13:10;;;;;;;3.97;1.65;;;;;;;32.84;24.47;99149.97;5094163;28;20039;-78
2022/09/05 08:15:42;;;;;;;1.88;1.70;;;;;;;31.94;26.49;99150.22;5092258;28;20508;-78
2022/09/05 08:18:22;;;;;;;2.03;1.52;;;;;;;31.76;27.23;99147.25;5094114;28;20024;-78
2022/09/05 08:21:06;;;;;;;1.85;1.75;;;;;;;32.08;25.61;99156.22;5093865;28;20085;-78
2022/09/05 08:23:41;;;;;;;1.58;1.40;;;;;;;33.28;24.45;99151.38;5094031;28;20085;-78
2022/09/05 08:26:23;;;;;;;1.67;1.45;;;;;;;33.61;24.90;99148.00;5092389;28;20016;-78
2022/09/05 08:29:03;;;;;;;2.22;1.20;;;;;;;32.10;26.70;99167.09;5094139;28;20071;-78
2022/09/05 08:31:41;;;;;;;1.80;1.70;;;;;;;30.97;26.84;99154.03;5093504;28;20036;-78
2022/09/05 08:34:17;;;;;;;2.17;1.80;;;;;;;29.87;27.55;99144.47;5093928;28;20024;-78
2022/09/05 08:36:48;;;;;;;1.58;1.48;;;;;;;30.50;26.98;99142.56;5093888;28;20060;-78
2022/09/05 08:39:24;;;;;;;1.88;1.50;;;;;;;31.41;26.31;99140.78;5093825;28;20027;-78
2022/09/05 08:41:56;;;;;;;3.03;1.83;;;;;;;29.93;28.36;99146.31;5092648;28;20403;-78
2022/09/05 08:44:30;;;;;;;2.10;1.90;;;;;;;29.49;28.47;99141.47;5073397;28;20074;-78
2022/09/05 08:47:17;;;;;;;2.58;2.10;;;;;;;28.92;28.95;99144.94;5073170;28;20487;-78
2022/09/05 08:50:18;;;;;;;2.53;2.05;;;;;;;29.35;28.11;99139.00;5073111;28;20095;-78
2022/09/05 08:52:53;;;;;;;1.98;1.60;;;;;;;29.48;29.17;99136.25;5073252;28;20039;-78
2022/09/05 08:55:40;;;;;;;2.83;2.17;;;;;;;28.95;29.43;99129.13;5088893;28;20026;-77
2022/09/05 08:58:24;;;;;;;3.13;2.08;;;;;;;29.81;27.77;99129.25;5110876;28;20055;-77
2022/09/05 09:01:02;;;;;;;3.92;2.00;;;;;;;29.93;27.31;99126.47;5093513;28;20039;-78
2022/09/05 09:04:03;;;;;;;2.40;2.20;;;;;;;29.10;28.10;99122.66;5093548;28;20454;-78
2022/09/05 09:06:50;;;;;;;2.28;2.08;;;;;;;29.70;28.51;99123.09;5031196;28;20033;-78
2022/09/05 09:09:23;;;;;;;2.72;2.13;;;;;;;29.26;28.55;99116.22;5087796;28;20040;-78
2022/09/05 09:11:55;;;;;;;3.38;1.83;;;;;;;28.73;28.67;99120.38;5092964;28;20043;-78
2022/09/05 09:14:48;;;;;;;2.95;1.90;;;;;;;29.40;28.93;99119.47;5090906;28;20148;-78
2022/09/05 09:17:39;;;;;;;5.60;3.42;;;;;;;29.63;26.53;99121.25;5092941;28;20032;-78
2022/09/05 09:20:25;;;;;;;2.17;1.83;;;;;;;29.35;27.30;99116.38;5093129;28;20029;-78
2022/09/05 09:23:09;;;;;;;3.67;2.20;;;;;;;28.47;28.76;99127.81;5093087;28;20024;-78
2022/09/05 09:25:42;;;;;;;3.58;2.63;;;;;;;28.67;29.21;99114.47;5093126;28;20034;-78
2022/09/05 09:28:41;;;;;;;3.05;2.70;;;;;;;29.04;28.13;99117.97;5092064;28;20028;-78
2022/09/05 09:31:13;;;;;;;2.83;2.63;;;;;;;29.09;28.56;99109.75;5092409;28;20036;-78
2022/09/05 09:33:49;;;;;;;2.80;2.40;;;;;;;29.11;27.94;99107.28;5093265;28;20501;-78
2022/09/05 09:37:00;;;;;;;3.20;2.63;;;;;;;28.74;28.93;99105.00;5093278;28;20154;-77
2022/09/05 09:39:57;;;;;;;3.53;2.70;;;;;;;29.77;27.88;99103.09;5093011;28;20047;-77
2022/09/05 09:42:49;;;;;;;2.92;2.63;;;;;;;30.07;27.20;99106.22;5077173;28;20089;-77
2022/09/05 09:45:41;;;;;;;2.88;2.60;;;;;;;30.91;26.70;99106.84;5092774;28;20107;-78
2022/09/05 09:48:29;;;;;;;3.20;2.47;;;;;;;30.69;27.05;99110.34;5064522;28;20108;-78
2022/09/05 09:51:17;;;;;;;2.97;2.58;;;;;;;30.34;26.42;99105.06;5072566;28;20094;-78
2022/09/05 09:54:06;;;;;;;2.63;2.10;;;;;;;31.79;25.16;99098.84;5072356;28;20442;-78
2022/09/05 09:56:38;;;;;;;2.45;2.25;;;;;;;30.40;26.50;99089.84;5078448;28;20078;-78
2022/09/05 09:59:25;;;;;;;3.85;2.75;;;;;;;30.06;26.88;99089.66;5081636;28;20033;-78
2022/09/05 10:02:14;;;;;;;2.25;1.98;;;;;;;31.15;25.17;99086.16;5075185;28;20060;-78
2022/09/05 10:05:10;;;;;;;3.15;2.25;;;;;;;32.38;24.77;99091.31;5093152;28;20416;-78
2022/09/05 10:08:01;;;;;;;3.53;2.22;;;;;;;31.67;26.31;99093.25;5092687;28;20024;-78
2022/09/05 10:11:07;;;;;;;2.10;2.00;;;;;;;32.26;24.20;99083.66;5092663;28;20047;-79
2022/09/05 10:13:56;;;;;;;4.03;2.78;;;;;;;30.98;25.45;99086.75;5073311;28;20049;-78
2022/09/05 10:16:37;;;;;;;3.08;2.13;;;;;;;31.53;25.96;99086.00;5092712;28;20028;-79
2022/09/05 10:19:29;;;;;;;2.55;2.35;;;;;;;29.53;27.53;99081.91;5092602;28;20062;-78
2022/09/05 10:22:17;;;;;;;7.25;2.88;;;;;;;29.61;27.53;99086.16;5092496;28;20039;-78
2022/09/05 10:25:08;;;;;;;2.47;2.28;;;;;;;30.78;25.89;99087.78;5092622;28;20024;-78
2022/09/05 10:27:53;;;;;;;2.50;2.30;;;;;;;30.87;26.46;99087.09;5080388;28;20032;-78
2022/09/05 10:30:43;;;;;;;3.70;2.90;;;;;;;29.93;27.46;99083.19;5096081;28;20032;-78
2022/09/05 10:33:34;;;;;;;3.67;3.03;;;;;;;30.38;26.90;99083.84;5096209;28;20391;-78
2022/09/05 10:36:22;;;;;;;3.17;2.22;;;;;;;30.11;27.31;99088.34;5096007;28;20281;-78
2022/09/05 10:39:00;;;;;;;3.15;2.53;;;;;;;29.17;28.65;99090.56;5089115;28;20487;-78
2022/09/05 10:41:42;;;;;;;3.05;2.53;;;;;;;28.58;28.85;99083.16;5077227;28;20403;-81
2022/09/05 10:44:12;;;;;;;2.78;2.40;;;;;;;29.04;28.85;99078.38;5088819;28;20073;-80
2022/09/05 10:47:04;;;;;;;2.88;2.05;;;;;;;30.53;26.91;99075.66;5090492;28;20041;-81
2022/09/05 10:49:37;;;;;;;3.03;2.40;;;;;;;30.83;26.92;99077.88;5088435;28;20032;-78
2022/09/05 10:52:19;;;;;;;3.65;2.20;;;;;;;30.61;26.58;99072.16;5091273;28;20082;-79
2022/09/05 10:55:14;;;;;;;3.63;3.15;;;;;;;29.69;27.63;99079.81;5080417;28;20027;-78
2022/09/05 10:57:53;;;;;;;6.55;2.22;;;;;;;31.67;26.14;99074.13;5083870;28;20113;-78
2022/09/05 11:00:56;;;;;;;3.85;2.38;;;;;;;29.88;26.71;99072.44;5090380;28;20032;-78
2022/09/05 11:03:45;;;;;;;6.40;2.88;;;;;;;30.57;25.72;99059.34;5085487;28;20038;-78
2022/09/05 11:06:17;;;;;;;2.38;2.17;;;;;;;30.17;26.89;99058.19;5085692;28;20037;-78
2022/09/05 11:09:05;;;;;;;2.92;1.67;;;;;;;30.70;25.92;99055.25;5088300;28;20028;-78
2022/09/05 11:11:45;;;;;;;3.85;2.38;;;;;;;30.75;27.62;99056.72;5089812;28;20127;-77
2022/09/05 11:14:34;;;;;;;2.78;2.05;;;;;;;32.21;24.23;99050.97;5088339;28;20059;-78
2022/09/05 11:17:23;;;;;;;3.05;1.80;;;;;;;30.65;24.63;99055.81;5094262;28;20035;-78
2022/09/05 11:20:15;;;;;;;3.80;2.00;;;;;;;31.39;24.03;99058.91;5098762;28;20039;-78
2022/09/05 11:22:46;;;;;;;5.00;2.00;;;;;;;30.41;24.85;99056.66;5088767;28;20033;-78
2022/09/05 11:25:22;;;;;;;1.75;1.60;;;;;;;30.66;25.47;99053.78;5090152;28;20504;-78
2022/09/05 11:27:52;;;;;;;1.88;1.67;;;;;;;30.10;27.13;99050.72;5085094;28;20035;-78
2022/09/05 11:30:20;;;;;;;2.80;1.90;;;;;;;30.33;27.49;99050.41;5080800;28;20033;-78
2022/09/05 11:33:05;;;;;;;2.03;1.83;;;;;;;30.40;26.07;99047.34;5075450;28;20392;-78
2022/09/05 11:35:41;;;;;;;2.55;1.70;;;;;;;30.81;25.66;99039.94;5094754;28;20035;-78
2022/09/05 11:38:07;;;;;;;2.83;1.70;;;;;;;30.10;25.48;99045.06;5093740;28;20039;-78
2022/09/05 11:40:55;;;;;;;2.88;1.80;;;;;;;30.17;25.18;99044.03;5094840;28;20429;-78
2022/09/05 11:43:58;;;;;;;3.20;1.70;;;;;;;30.19;24.66;99039.50;5101970;28;20050;-79
2022/09/05 11:46:35;;;;;;;1.65;1.55;;;;;;;30.98;24.80;99035.69;5088085;28;20077;-79
2022/09/05 11:49:20;;;;;;;3.22;1.60;;;;;;;32.13;24.63;99037.50;5094681;28;20039;-79
2022/09/05 11:52:34;;;;;;;3.70;2.90;;;;;;;32.55;22.85;99033.75;5094602;28;20044;-79
2022/09/05 11:55:28;;;;;;;2.60;1.70;;;;;;;33.15;23.21;99031.19;5079770;28;20507;-79
2022/09/05 11:58:06;;;;;;;5.72;2.53;;;;;;;31.33;23.42;99028.75;5085985;28;20123;-79
2022/09/05 12:00:35;;;;;;;3.13;2.05;;;;;;;30.44;25.57;99031.00;5093926;28;20048;-78
2022/09/05 12:03:23;;;;;;;4.40;1.80;;;;;;;31.74;24.24;99036.16;5094295;28;20107;-79
2022/09/05 12:06:10;;;;;;;2.83;1.80;;;;;;;30.73;23.81;99036.53;5094312;28;20032;-78
2022/09/05 12:09:03;;;;;;;2.05;1.77;;;;;;;31.57;23.67;99035.59;5093125;28;20054;-79
2022/09/05 12:12:06;;;;;;;2.63;1.80;;;;;;;30.79;24.38;99029.03;5091598;28;20564;-79
2022/09/05 12:14:34;;;;;;;1.70;1.60;;;;;;;31.83;22.47;99039.06;5074296;28;20105;-79
2022/09/05 12:17:28;;;;;;;3.08;1.73;;;;;;;32.63;22.66;99029.34;5086708;28;20032;-79
2022/09/05 12:20:13;;;;;;;3.22;1.77;;;;;;;33.18;21.61;99016.03;5094071;28;20028;-79
2022/09/05 12:22:53;;;;;;;1.77;1.58;;;;;;;34.31;20.81;99015.66;5094025;28;20039;-79
2022/09/05 12:25:53;;;;;;;2.43;1.50;;;;;;;32.01;22.23;99020.09;5093696;28;20062;-78
2022/09/05 12:28:49;;;;;;;2.75;1.45;;;;;;;32.30;22.72;99027.50;5082404;28;20036;-78
2022/09/05 12:31:34;;;;;;;2.83;1.70;;;;;;;31.44;21.95;99026.31;5091498;28;20043;-79
2022/09/05 12:34:08;;;;;;;2.72;1.58;;;;;;;33.71;21.37;99010.75;5093823;28;20032;-78
2022/09/05 12:36:43;;;;;;;3.08;1.30;;;;;;;33.39;20.61;99012.22;5093644;28;20477;-78
2022/09/05 12:39:15;;;;;;;1.80;1.30;;;;;;;32.04;21.19;99012.69;5097391;28;20058;-78
2022/09/05 12:41:52;;;;;;;2.97;1.55;;;;;;;31.86;21.92;99013.34;5092963;28;20037;-79
2022/09/05 12:45:07;;;;;;;2.05;1.67;;;;;;;32.89;22.35;99000.63;5073621;28;20051;-79
2022/09/05 12:47:46;;;;;;;1.73;1.52;;;;;;;32.47;21.70;99004.00;5057833;28;20405;-78
2022/09/05 12:50:18;;;;;;;2.13;1.92;;;;;;;32.73;22.35;98996.03;5051817;28;20520;-79
2022/09/05 12:52:49;;;;;;;5.45;1.60;;;;;;;32.53;22.63;98996.47;5073428;28;20044;-78